createdAt,value
2022-12-01T00:00:59.733Z,1011.7
2022-12-01T00:02:16.879Z,1011.7
2022-12-01T00:03:33.714Z,1011.7
2022-12-01T00:04:50.701Z,1011.7
2022-12-01T00:06:07.765Z,1011.7
2022-12-01T00:07:24.952Z,1011.7
2022-12-01T00:08:41.803Z,1011.7
2022-12-01T00:09:58.719Z,1011.7
2022-12-01T00:11:15.819Z,1011.7
2022-12-01T00:12:32.751Z,1011.7
2022-12-01T00:13:49.752Z,1011.7
2022-12-01T00:15:06.897Z,1011.8
2022-12-01T00:16:23.784Z,1011.7
2022-12-01T00:17:40.893Z,1011.7
2022-12-01T00:18:57.726Z,1011.7
2022-12-01T00:20:14.720Z,1011.7
2022-12-01T00:21:31.751Z,1011.7
2022-12-01T00:22:48.769Z,1011.6
2022-12-01T00:24:05.723Z,1011.7
2022-12-01T00:25:22.728Z,1011.7
2022-12-01T00:26:39.832Z,1011.7
2022-12-01T00:27:56.767Z,1011.7
2022-12-01T00:29:13.737Z,1011.7
2022-12-01T00:30:30.758Z,1011.7
2022-12-01T00:31:47.818Z,1011.6
2022-12-01T00:33:04.736Z,1011.6
2022-12-01T00:34:21.823Z,1011.7
2022-12-01T00:35:38.778Z,1011.7
2022-12-01T00:36:55.795Z,1011.6
2022-12-01T00:38:12.788Z,1011.6
2022-12-01T00:39:29.779Z,1011.7
2022-12-01T00:40:47.104Z,1011.7
2022-12-01T00:42:04.685Z,1011.7
2022-12-01T00:43:20.755Z,1011.7
2022-12-01T00:44:37.757Z,1011.7
2022-12-01T00:45:54.836Z,1011.7
2022-12-01T00:47:12.808Z,1011.7
2022-12-01T00:48:29.774Z,1011.7
2022-12-01T00:49:47.048Z,1011.7
2022-12-01T00:51:03.760Z,1011.7
2022-12-01T00:52:20.791Z,1011.6
2022-12-01T00:53:37.770Z,1011.6
2022-12-01T00:54:54.784Z,1011.6
2022-12-01T00:56:11.763Z,1011.6
2022-12-01T00:57:28.792Z,1011.6
2022-12-01T00:58:45.911Z,1011.6
2022-12-01T01:00:02.973Z,1011.6
2022-12-01T01:01:19.884Z,1011.6
2022-12-01T01:02:36.896Z,1011.6
2022-12-01T01:03:53.809Z,1011.6
2022-12-01T01:05:10.883Z,1011.6
2022-12-01T01:06:27.767Z,1011.6
2022-12-01T01:07:44.887Z,1011.6
2022-12-01T01:09:01.951Z,1011.6
2022-12-01T01:10:18.826Z,1011.6
2022-12-01T01:11:35.822Z,1011.6
2022-12-01T01:12:52.826Z,1011.6
2022-12-01T01:14:09.802Z,1011.6
2022-12-01T01:15:26.857Z,1011.6
2022-12-01T01:16:43.922Z,1011.6
2022-12-01T01:18:01.030Z,1011.6
2022-12-01T01:19:17.818Z,1011.6
2022-12-01T01:20:35.083Z,1011.6
2022-12-01T01:21:51.793Z,1011.6
2022-12-01T01:23:08.787Z,1011.5
2022-12-01T01:24:25.825Z,1011.6
2022-12-01T01:25:42.801Z,1011.6
2022-12-01T01:26:59.864Z,1011.6
2022-12-01T01:28:16.907Z,1011.6
2022-12-01T01:29:33.862Z,1011.6
2022-12-01T01:30:51.003Z,1011.6
2022-12-01T01:32:07.848Z,1011.6
2022-12-01T01:33:24.817Z,1011.6
2022-12-01T01:34:42.162Z,1011.5
2022-12-01T01:35:58.806Z,1011.5
2022-12-01T01:37:15.884Z,1011.5
2022-12-01T01:38:32.984Z,1011.5
2022-12-01T01:39:50.094Z,1011.5
2022-12-01T01:41:06.816Z,1011.5
2022-12-01T01:42:23.866Z,1011.4
2022-12-01T01:43:40.835Z,1011.4
2022-12-01T01:44:57.833Z,1011.4
2022-12-01T01:46:14.845Z,1011.4
2022-12-01T01:47:31.869Z,1011.4
2022-12-01T01:48:48.925Z,1011.4
2022-12-01T01:50:05.864Z,1011.4
2022-12-01T01:51:23.256Z,1011.4
2022-12-01T01:52:39.921Z,1011.4
2022-12-01T01:53:56.891Z,1011.4
2022-12-01T01:55:13.873Z,1011.4
2022-12-01T01:56:30.871Z,1011.4
2022-12-01T01:57:47.876Z,1011.4
2022-12-01T01:59:04.871Z,1011.4
2022-12-01T02:00:21.962Z,1011.3
2022-12-01T02:01:39.049Z,1011.4
2022-12-01T02:02:55.900Z,1011.3
2022-12-01T02:04:12.854Z,1011.3
2022-12-01T02:05:30.470Z,1011.3
2022-12-01T02:06:47.845Z,1011.3
2022-12-01T02:08:04.961Z,1011.3
2022-12-01T02:09:21.915Z,1011.3
2022-12-01T02:10:38.961Z,1011.3
2022-12-01T02:11:55.876Z,1011.3
2022-12-01T02:13:12.908Z,1011.4
2022-12-01T02:14:29.904Z,1011.4
2022-12-01T02:15:46.892Z,1011.4
2022-12-01T02:17:03.953Z,1011.4
2022-12-01T02:18:20.868Z,1011.4
2022-12-01T02:19:37.908Z,1011.4
2022-12-01T02:20:54.878Z,1011.4
2022-12-01T02:22:11.938Z,1011.4
2022-12-01T02:23:28.878Z,1011.3
2022-12-01T02:24:45.935Z,1011.4
2022-12-01T02:26:03.008Z,1011.4
2022-12-01T02:27:19.904Z,1011.4
2022-12-01T02:28:36.909Z,1011.3
2022-12-01T02:29:53.998Z,1011.3
2022-12-01T02:31:13.730Z,1011.3
2022-12-01T02:32:27.890Z,1011.3
2022-12-01T02:33:45.009Z,1011.3
2022-12-01T02:35:01.987Z,1011.3
2022-12-01T02:36:18.956Z,1011.3
2022-12-01T02:37:35.977Z,1011.3
2022-12-01T02:38:52.926Z,1011.3
2022-12-01T02:40:09.882Z,1011.3
2022-12-01T02:41:26.920Z,1011.3
2022-12-01T02:42:43.935Z,1011.2
2022-12-01T02:44:00.896Z,1011.2
2022-12-01T02:45:17.959Z,1011.2
2022-12-01T02:46:35.017Z,1011.2
2022-12-01T02:47:51.938Z,1011.2
2022-12-01T02:49:08.915Z,1011.1
2022-12-01T02:50:25.923Z,1011.2
2022-12-01T02:51:42.970Z,1011.2
2022-12-01T02:52:59.929Z,1011.2
2022-12-01T02:54:16.917Z,1011.2
2022-12-01T02:55:33.913Z,1011.2
2022-12-01T02:56:50.937Z,1011.2
2022-12-01T02:58:07.933Z,1011.2
2022-12-01T02:59:24.931Z,1011.2
2022-12-01T03:00:42.055Z,1011.2
2022-12-01T03:01:59.009Z,1011.2
2022-12-01T03:03:15.919Z,1011.1
2022-12-01T03:04:32.924Z,1011.1
2022-12-01T03:05:50.515Z,1011.1
2022-12-01T03:07:07.932Z,1011.1
2022-12-01T03:08:24.949Z,1011.1
2022-12-01T03:09:41.933Z,1011.1
2022-12-01T03:10:58.959Z,1011.1
2022-12-01T03:12:15.930Z,1011.1
2022-12-01T03:13:32.938Z,1011.1
2022-12-01T03:14:49.971Z,1011
2022-12-01T03:16:07.132Z,1011.1
2022-12-01T03:17:23.998Z,1011.1
2022-12-01T03:18:40.985Z,1011.1
2022-12-01T03:19:57.973Z,1011.1
2022-12-01T03:21:16.017Z,1011
2022-12-01T03:22:32.976Z,1011
2022-12-01T03:23:49.972Z,1011
2022-12-01T03:25:06.970Z,1011
2022-12-01T03:26:24.026Z,1011
2022-12-01T03:27:41.766Z,1011
2022-12-01T03:28:57.976Z,1011
2022-12-01T03:30:15.106Z,1011
2022-12-01T03:31:32.104Z,1011
2022-12-01T03:32:48.969Z,1011
2022-12-01T03:34:05.981Z,1011
2022-12-01T03:35:22.971Z,1011.1
2022-12-01T03:36:39.986Z,1011
2022-12-01T03:37:56.975Z,1011
2022-12-01T03:39:14.051Z,1011
2022-12-01T03:40:30.997Z,1011
2022-12-01T03:41:48.056Z,1011.1
2022-12-01T03:43:05.017Z,1011
2022-12-01T03:44:21.975Z,1011
2022-12-01T03:45:39.000Z,1011
2022-12-01T03:46:56.097Z,1011
2022-12-01T03:48:12.981Z,1011
2022-12-01T03:49:29.988Z,1011
2022-12-01T03:50:46.975Z,1011
2022-12-01T03:52:04.016Z,1011.1
2022-12-01T03:53:20.986Z,1011
2022-12-01T03:54:38.037Z,1011
2022-12-01T03:55:55.040Z,1011
2022-12-01T03:57:11.993Z,1011
2022-12-01T03:58:28.990Z,1011
2022-12-01T03:59:46.122Z,1011
2022-12-01T04:01:03.006Z,1011
2022-12-01T04:02:20.133Z,1011
2022-12-01T04:03:37.007Z,1010.8
2022-12-01T04:04:54.005Z,1010.9
2022-12-01T04:06:11.017Z,1011
2022-12-01T04:07:28.114Z,1011
2022-12-01T04:08:45.023Z,1011
2022-12-01T04:10:02.164Z,1011.1
2022-12-01T04:11:19.051Z,1011.1
2022-12-01T04:12:36.078Z,1011.1
2022-12-01T04:13:53.007Z,1011.1
2022-12-01T04:15:10.015Z,1011.1
2022-12-01T04:16:27.155Z,1011.1
2022-12-01T04:17:44.106Z,1011.1
2022-12-01T04:19:01.202Z,1011.1
2022-12-01T04:20:18.031Z,1011.1
2022-12-01T04:21:35.017Z,1011
2022-12-01T04:22:52.077Z,1011.1
2022-12-01T04:24:09.063Z,1011.1
2022-12-01T04:25:26.055Z,1011.1
2022-12-01T04:26:43.052Z,1011.1
2022-12-01T04:28:00.083Z,1011.1
2022-12-01T04:29:17.032Z,1011.1
2022-12-01T04:30:34.109Z,1011.1
2022-12-01T04:31:51.114Z,1011
2022-12-01T04:33:08.145Z,1011
2022-12-01T04:34:25.042Z,1011
2022-12-01T04:35:42.048Z,1011
2022-12-01T04:36:59.053Z,1011
2022-12-01T04:38:16.090Z,1011
2022-12-01T04:39:33.042Z,1011
2022-12-01T04:40:50.053Z,1011
2022-12-01T04:42:07.128Z,1011.1
2022-12-01T04:43:24.187Z,1011.1
2022-12-01T04:44:41.053Z,1011.1
2022-12-01T04:45:58.068Z,1011.1
2022-12-01T04:47:15.065Z,1011.1
2022-12-01T04:48:32.133Z,1011.1
2022-12-01T04:49:49.404Z,1011.1
2022-12-01T04:51:06.077Z,1011.2
2022-12-01T04:52:23.261Z,1011.2
2022-12-01T04:53:40.195Z,1011.2
2022-12-01T04:54:57.781Z,1011.2
2022-12-01T04:56:15.068Z,1011.2
2022-12-01T04:57:32.070Z,1011.2
2022-12-01T04:58:49.101Z,1011.2
2022-12-01T05:00:06.179Z,1011.2
2022-12-01T05:01:23.213Z,1011.2
2022-12-01T05:02:40.127Z,1011.1
2022-12-01T05:03:57.153Z,1011.2
2022-12-01T05:05:14.088Z,1011.2
2022-12-01T05:06:31.112Z,1011.2
2022-12-01T05:07:48.234Z,1011.2
2022-12-01T05:09:05.119Z,1011.2
2022-12-01T05:10:22.084Z,1011.2
2022-12-01T05:11:39.118Z,1011.2
2022-12-01T05:12:56.096Z,1011.3
2022-12-01T05:14:13.090Z,1011.3
2022-12-01T05:15:30.190Z,1011.3
2022-12-01T05:16:47.120Z,1011.3
2022-12-01T05:18:04.107Z,1011.3
2022-12-01T05:19:21.133Z,1011.3
2022-12-01T05:20:38.151Z,1011.2
2022-12-01T05:21:55.108Z,1011.3
2022-12-01T05:23:15.231Z,1011.3
2022-12-01T05:24:29.122Z,1011.3
2022-12-01T05:25:46.146Z,1011.2
2022-12-01T05:27:03.125Z,1011.3
2022-12-01T05:28:20.110Z,1011.3
2022-12-01T05:29:37.198Z,1011.2
2022-12-01T05:30:54.118Z,1011.2
2022-12-01T05:32:11.116Z,1011.2
2022-12-01T05:33:28.208Z,1011.2
2022-12-01T05:34:45.267Z,1011.2
2022-12-01T05:36:02.264Z,1011.2
2022-12-01T05:37:19.139Z,1011.2
2022-12-01T05:38:36.127Z,1011.2
2022-12-01T05:39:53.146Z,1011.2
2022-12-01T05:41:10.132Z,1011.2
2022-12-01T05:42:27.133Z,1011.2
2022-12-01T05:43:44.124Z,1011.2
2022-12-01T05:45:01.361Z,1011.2
2022-12-01T05:46:18.268Z,1011.2
2022-12-01T05:47:35.123Z,1011.2
2022-12-01T05:48:52.140Z,1011.2
2022-12-01T05:50:09.246Z,1011.2
2022-12-01T05:51:26.165Z,1011.2
2022-12-01T05:52:43.160Z,1011.3
2022-12-01T05:54:00.141Z,1011.3
2022-12-01T05:55:17.174Z,1011.2
2022-12-01T05:56:34.140Z,1011.2
2022-12-01T05:57:51.730Z,1011.2
2022-12-01T06:03:17.194Z,1011.3
2022-12-01T06:04:34.530Z,1011.2
2022-12-01T06:05:51.192Z,1011.2
2022-12-01T06:07:08.168Z,1011.3
2022-12-01T06:08:25.194Z,1011.3
2022-12-01T06:09:42.228Z,1011.3
2022-12-01T06:10:59.164Z,1011.3
2022-12-01T06:12:16.166Z,1011.3
2022-12-01T06:13:33.186Z,1011.3
2022-12-01T06:14:50.211Z,1011.3
2022-12-01T06:16:07.368Z,1011.4
2022-12-01T06:17:24.252Z,1011.3
2022-12-01T06:18:41.222Z,1011.3
2022-12-01T06:19:58.199Z,1011.3
2022-12-01T06:21:15.204Z,1011.3
2022-12-01T06:22:32.174Z,1011.3
2022-12-01T06:23:49.201Z,1011.3
2022-12-01T06:25:06.275Z,1011.3
2022-12-01T06:26:23.197Z,1011.4
2022-12-01T06:27:40.188Z,1011.3
2022-12-01T06:28:57.826Z,1011.4
2022-12-01T06:30:15.327Z,1011.3
2022-12-01T06:31:32.217Z,1011.3
2022-12-01T06:32:49.212Z,1011.4
2022-12-01T06:34:06.200Z,1011.3
2022-12-01T06:35:23.229Z,1011.3
2022-12-01T06:36:40.217Z,1011.3
2022-12-01T06:37:57.198Z,1011.3
2022-12-01T06:39:14.193Z,1011.3
2022-12-01T06:40:31.253Z,1011.3
2022-12-01T06:41:48.267Z,1011.3
2022-12-01T06:43:05.215Z,1011.3
2022-12-01T06:44:22.241Z,1011.3
2022-12-01T06:45:41.329Z,1011.3
2022-12-01T06:46:59.229Z,1011.3
2022-12-01T06:48:16.210Z,1011.3
2022-12-01T06:49:33.234Z,1011.3
2022-12-01T06:50:50.211Z,1011.3
2022-12-01T06:52:07.260Z,1011.4
2022-12-01T06:53:24.226Z,1011.4
2022-12-01T06:54:41.263Z,1011.4
2022-12-01T06:55:58.231Z,1011.4
2022-12-01T06:57:15.297Z,1011.4
2022-12-01T06:58:32.229Z,1011.4
2022-12-01T06:59:49.542Z,1011.4
2022-12-01T07:01:06.287Z,1011.4
2022-12-01T07:02:23.869Z,1011.4
2022-12-01T07:03:40.250Z,1011.3
2022-12-01T07:04:57.618Z,1011.4
2022-12-01T07:06:14.276Z,1011.3
2022-12-01T07:07:31.313Z,1011.3
2022-12-01T07:08:48.260Z,1011.3
2022-12-01T07:10:05.325Z,1011.4
2022-12-01T07:11:22.246Z,1011.3
2022-12-01T07:12:39.313Z,1011.4
2022-12-01T07:13:56.275Z,1011.4
2022-12-01T07:15:13.272Z,1011.4
2022-12-01T07:16:30.717Z,1011.4
2022-12-01T07:17:47.249Z,1011.4
2022-12-01T07:19:04.250Z,1011.4
2022-12-01T07:20:21.282Z,1011.4
2022-12-01T07:21:38.330Z,1011.4
2022-12-01T07:22:55.282Z,1011.4
2022-12-01T07:24:12.306Z,1011.5
2022-12-01T07:25:29.408Z,1011.5
2022-12-01T07:26:46.349Z,1011.5
2022-12-01T07:28:03.281Z,1011.5
2022-12-01T07:29:20.252Z,1011.5
2022-12-01T07:30:37.338Z,1011.5
2022-12-01T07:31:54.298Z,1011.5
2022-12-01T07:33:11.363Z,1011.5
2022-12-01T07:34:28.320Z,1011.5
2022-12-01T07:35:45.868Z,1011.5
2022-12-01T07:37:03.342Z,1011.5
2022-12-01T07:38:22.192Z,1011.5
2022-12-01T07:39:37.285Z,1011.5
2022-12-01T07:40:54.289Z,1011.5
2022-12-01T07:42:11.368Z,1011.5
2022-12-01T07:43:28.290Z,1011.5
2022-12-01T07:44:45.285Z,1011.6
2022-12-01T07:46:02.399Z,1011.6
2022-12-01T07:47:19.339Z,1011.5
2022-12-01T07:48:36.293Z,1011.5
2022-12-01T07:49:53.287Z,1011.5
2022-12-01T07:51:10.287Z,1011.6
2022-12-01T07:52:27.338Z,1011.5
2022-12-01T07:53:44.344Z,1011.5
2022-12-01T07:55:01.314Z,1011.5
2022-12-01T07:56:18.375Z,1011.6
2022-12-01T07:57:35.315Z,1011.6
2022-12-01T07:58:52.448Z,1011.6
2022-12-01T08:00:09.403Z,1011.6
2022-12-01T08:01:26.498Z,1011.6
2022-12-01T08:02:43.350Z,1011.6
2022-12-01T08:04:00.357Z,1011.6
2022-12-01T08:05:17.312Z,1011.6
2022-12-01T08:06:34.357Z,1011.6
2022-12-01T08:07:51.366Z,1011.6
2022-12-01T08:09:08.347Z,1011.6
2022-12-01T08:10:25.398Z,1011.6
2022-12-01T08:11:42.375Z,1011.6
2022-12-01T08:12:59.320Z,1011.6
2022-12-01T08:14:16.349Z,1011.6
2022-12-01T08:15:33.348Z,1011.6
2022-12-01T08:16:50.563Z,1011.6
2022-12-01T08:18:07.319Z,1011.6
2022-12-01T08:19:24.331Z,1011.6
2022-12-01T08:20:41.388Z,1011.6
2022-12-01T08:21:58.352Z,1011.6
2022-12-01T08:23:15.330Z,1011.6
2022-12-01T08:24:32.363Z,1011.7
2022-12-01T08:25:49.339Z,1011.6
2022-12-01T08:27:06.364Z,1011.6
2022-12-01T08:28:23.348Z,1011.6
2022-12-01T08:29:40.340Z,1011.6
2022-12-01T08:30:57.436Z,1011.6
2022-12-01T08:32:14.349Z,1011.6
2022-12-01T08:33:31.368Z,1011.7
2022-12-01T08:34:53.258Z,1011.6
2022-12-01T08:36:05.404Z,1011.6
2022-12-01T08:37:22.563Z,1011.6
2022-12-01T08:38:39.357Z,1011.6
2022-12-01T08:39:56.380Z,1011.6
2022-12-01T08:41:13.378Z,1011.6
2022-12-01T08:42:30.349Z,1011.6
2022-12-01T08:44:02.692Z,1011.6
2022-12-01T08:45:04.488Z,1011.7
2022-12-01T08:46:21.488Z,1011.6
2022-12-01T08:47:38.543Z,1011.6
2022-12-01T08:48:55.382Z,1011.6
2022-12-01T08:50:12.371Z,1011.6
2022-12-01T08:51:29.375Z,1011.6
2022-12-01T08:52:46.443Z,1011.6
2022-12-01T08:54:03.411Z,1011.6
2022-12-01T08:55:20.397Z,1011.6
2022-12-01T08:56:37.446Z,1011.7
2022-12-01T08:57:54.452Z,1011.7
2022-12-01T08:59:11.401Z,1011.7
2022-12-01T09:00:28.456Z,1011.7
2022-12-01T09:01:45.485Z,1011.7
2022-12-01T09:03:02.733Z,1011.7
2022-12-01T09:04:19.389Z,1011.7
2022-12-01T09:05:36.409Z,1011.6
2022-12-01T09:06:53.407Z,1011.6
2022-12-01T09:08:10.485Z,1011.7
2022-12-01T09:09:27.401Z,1011.7
2022-12-01T09:10:44.471Z,1011.7
2022-12-01T09:12:01.421Z,1011.7
2022-12-01T09:13:18.410Z,1011.7
2022-12-01T09:14:35.430Z,1011.8
2022-12-01T09:15:52.425Z,1011.7
2022-12-01T09:17:09.450Z,1011.7
2022-12-01T09:18:26.403Z,1011.7
2022-12-01T09:19:43.463Z,1011.7
2022-12-01T09:21:00.519Z,1011.7
2022-12-01T09:22:17.439Z,1011.7
2022-12-01T09:23:34.724Z,1011.7
2022-12-01T09:24:51.415Z,1011.7
2022-12-01T09:26:12.193Z,1011.7
2022-12-01T09:27:25.477Z,1011.7
2022-12-01T09:28:42.452Z,1011.6
2022-12-01T09:29:59.492Z,1011.6
2022-12-01T09:31:16.559Z,1011.6
2022-12-01T09:32:33.432Z,1011.7
2022-12-01T09:33:50.427Z,1011.7
2022-12-01T09:35:07.649Z,1011.6
2022-12-01T09:36:24.573Z,1011.6
2022-12-01T09:37:41.434Z,1011.6
2022-12-01T09:38:58.438Z,1011.6
2022-12-01T09:40:15.588Z,1011.6
2022-12-01T09:41:32.496Z,1011.6
2022-12-01T09:42:49.570Z,1011.5
2022-12-01T09:44:06.464Z,1011.6
2022-12-01T09:45:23.498Z,1011.5
2022-12-01T09:46:40.559Z,1011.5
2022-12-01T09:47:57.491Z,1011.5
2022-12-01T09:49:14.475Z,1011.5
2022-12-01T09:50:31.470Z,1011.5
2022-12-01T09:51:48.475Z,1011.5
2022-12-01T09:53:05.486Z,1011.5
2022-12-01T09:54:22.469Z,1011.5
2022-12-01T09:55:39.454Z,1011.5
2022-12-01T09:56:56.518Z,1011.4
2022-12-01T09:58:13.514Z,1011.4
2022-12-01T09:59:30.476Z,1011.4
2022-12-01T10:00:47.601Z,1011.4
2022-12-01T10:02:04.556Z,1011.4
2022-12-01T10:03:21.760Z,1011.4
2022-12-01T10:04:38.499Z,1011.4
2022-12-01T10:06:26.475Z,1011.4
2022-12-01T10:07:12.593Z,1011.4
2022-12-01T10:08:29.463Z,1011.4
2022-12-01T10:09:46.669Z,1011.4
2022-12-01T10:11:03.683Z,1011.4
2022-12-01T10:12:20.564Z,1011.4
2022-12-01T10:13:37.484Z,1011.4
2022-12-01T10:14:54.520Z,1011.3
2022-12-01T10:16:12.057Z,1011.3
2022-12-01T10:17:28.498Z,1011.3
2022-12-01T10:18:45.686Z,1011.3
2022-12-01T10:20:02.785Z,1011.4
2022-12-01T10:21:19.779Z,1011.4
2022-12-01T10:22:36.485Z,1011.4
2022-12-01T10:23:53.512Z,1011.3
2022-12-01T10:25:10.488Z,1011.3
2022-12-01T10:26:27.558Z,1011.3
2022-12-01T10:27:44.528Z,1011.3
2022-12-01T10:29:01.496Z,1011.3
2022-12-01T10:30:18.689Z,1011.3
2022-12-01T10:31:35.611Z,1011.3
2022-12-01T10:32:52.746Z,1011.3
2022-12-01T10:34:09.529Z,1011.2
2022-12-01T10:35:26.529Z,1011.2
2022-12-01T10:36:43.733Z,1011.2
2022-12-01T10:38:00.634Z,1011.2
2022-12-01T10:39:17.545Z,1011.2
2022-12-01T10:40:34.605Z,1011.2
2022-12-01T10:41:51.514Z,1011.2
2022-12-01T10:43:08.551Z,1011.2
2022-12-01T10:44:25.517Z,1011.1
2022-12-01T10:45:42.614Z,1011.1
2022-12-01T10:46:59.591Z,1011.1
2022-12-01T10:48:16.557Z,1011.1
2022-12-01T10:49:33.526Z,1011.1
2022-12-01T10:50:50.549Z,1011
2022-12-01T10:52:07.564Z,1011.1
2022-12-01T10:53:24.557Z,1011
2022-12-01T10:54:41.521Z,1011
2022-12-01T10:55:58.582Z,1011
2022-12-01T10:57:15.563Z,1011
2022-12-01T10:58:32.624Z,1011
2022-12-01T10:59:50.194Z,1011
2022-12-01T11:01:06.914Z,1011
2022-12-01T11:02:23.962Z,1011.1
2022-12-01T11:03:40.587Z,1011
2022-12-01T11:04:57.582Z,1011
2022-12-01T11:06:14.559Z,1011.1
2022-12-01T11:07:31.612Z,1011.1
2022-12-01T11:08:48.609Z,1011.1
2022-12-01T11:10:05.631Z,1011.1
2022-12-01T11:11:22.743Z,1011.1
2022-12-01T11:12:39.602Z,1011
2022-12-01T11:13:56.591Z,1011
2022-12-01T11:15:13.667Z,1011
2022-12-01T11:16:30.748Z,1011
2022-12-01T11:17:47.646Z,1011.1
2022-12-01T11:19:04.632Z,1011
2022-12-01T11:20:21.766Z,1011
2022-12-01T11:21:38.575Z,1011
2022-12-01T11:22:55.591Z,1011
2022-12-01T11:24:12.952Z,1011
2022-12-01T11:25:29.718Z,1011.1
2022-12-01T11:26:46.915Z,1011
2022-12-01T11:28:04.088Z,1011
2022-12-01T11:29:21.626Z,1011.1
2022-12-01T11:30:38.779Z,1011.1
2022-12-01T11:31:55.615Z,1011.1
2022-12-01T11:33:12.748Z,1011
2022-12-01T11:34:29.601Z,1011
2022-12-01T11:35:46.823Z,1011
2022-12-01T11:37:03.628Z,1011
2022-12-01T11:38:29.509Z,1011
2022-12-01T11:39:37.615Z,1011
2022-12-01T11:40:54.633Z,1011
2022-12-01T11:42:11.593Z,1011
2022-12-01T11:43:28.592Z,1011
2022-12-01T11:44:52.987Z,1010.9
2022-12-01T11:46:02.737Z,1011
2022-12-01T11:47:24.273Z,1010.9
2022-12-01T11:48:36.717Z,1011
2022-12-01T11:49:53.975Z,1011
2022-12-01T11:51:10.870Z,1010.9
2022-12-01T11:52:27.623Z,1010.9
2022-12-01T11:53:44.759Z,1011
2022-12-01T11:55:05.717Z,1010.9
2022-12-01T11:56:18.845Z,1010.9
2022-12-01T11:57:35.697Z,1010.9
2022-12-01T11:58:52.669Z,1010.9
2022-12-01T12:00:09.760Z,1010.9
2022-12-01T12:01:27.103Z,1010.9
2022-12-01T12:02:43.948Z,1010.9
2022-12-01T12:04:00.682Z,1010.9
2022-12-01T12:05:17.659Z,1010.9
2022-12-01T12:06:41.916Z,1010.9
2022-12-01T12:07:51.723Z,1010.9
2022-12-01T12:09:08.700Z,1010.9
2022-12-01T12:10:25.694Z,1010.9
2022-12-01T12:11:42.762Z,1010.9
2022-12-01T12:12:59.828Z,1010.9
2022-12-01T12:14:16.695Z,1010.8
2022-12-01T12:15:33.828Z,1010.8
2022-12-01T12:16:50.652Z,1010.9
2022-12-01T12:18:07.817Z,1010.9
2022-12-01T12:19:28.981Z,1010.9
2022-12-01T12:20:42.801Z,1010.9
2022-12-01T12:21:59.646Z,1010.8
2022-12-01T12:23:16.998Z,1010.9
2022-12-01T12:24:33.825Z,1010.9
2022-12-01T12:25:50.828Z,1010.9
2022-12-01T12:27:07.669Z,1010.9
2022-12-01T12:28:24.786Z,1010.9
2022-12-01T12:29:41.659Z,1010.8
2022-12-01T12:30:58.770Z,1010.8
2022-12-01T12:32:16.238Z,1010.8
2022-12-01T12:33:33.927Z,1010.8
2022-12-01T12:34:50.735Z,1010.8
2022-12-01T12:36:07.699Z,1010.8
2022-12-01T12:37:24.678Z,1010.8
2022-12-01T12:38:41.702Z,1010.8
2022-12-01T12:39:58.677Z,1010.8
2022-12-01T12:41:15.679Z,1010.8
2022-12-01T12:42:32.697Z,1010.8
2022-12-01T12:43:49.785Z,1010.8
2022-12-01T12:45:06.797Z,1010.9
2022-12-01T12:46:23.731Z,1010.8
2022-12-01T12:47:40.667Z,1010.8
2022-12-01T12:49:18.459Z,1010.8
2022-12-01T12:50:14.720Z,1010.8
2022-12-01T12:51:31.778Z,1010.8
2022-12-01T12:52:48.693Z,1010.8
2022-12-01T12:54:05.809Z,1010.8
2022-12-01T12:55:22.879Z,1010.8
2022-12-01T12:56:39.718Z,1010.8
2022-12-01T12:57:56.724Z,1010.8
2022-12-01T12:59:13.684Z,1010.8
2022-12-01T13:00:30.887Z,1010.8
2022-12-01T13:01:47.784Z,1010.8
2022-12-01T13:03:04.844Z,1010.9
2022-12-01T13:04:21.834Z,1010.9
2022-12-01T13:05:38.733Z,1010.8
2022-12-01T13:06:55.712Z,1010.9
2022-12-01T13:08:12.716Z,1010.9
2022-12-01T13:09:29.697Z,1011
2022-12-01T13:10:46.845Z,1010.9
2022-12-01T13:12:04.130Z,1011
2022-12-01T13:13:20.732Z,1011
2022-12-01T13:14:37.734Z,1011
2022-12-01T13:15:54.804Z,1011
2022-12-01T13:17:11.769Z,1011
2022-12-01T13:18:28.907Z,1011
2022-12-01T13:19:46.031Z,1011
2022-12-01T13:21:02.874Z,1011
2022-12-01T13:22:19.800Z,1010.9
2022-12-01T13:23:37.535Z,1010.9
2022-12-01T13:24:54.750Z,1010.9
2022-12-01T13:26:11.874Z,1010.9
2022-12-01T13:27:28.893Z,1011
2022-12-01T13:28:45.723Z,1010.9
2022-12-01T13:30:03.906Z,1010.9
2022-12-01T13:31:20.841Z,1010.9
2022-12-01T13:32:37.845Z,1010.9
2022-12-01T13:33:54.753Z,1010.9
2022-12-01T13:35:11.897Z,1010.9
2022-12-01T13:37:45.856Z,1010.9
2022-12-01T13:39:03.092Z,1010.9
2022-12-01T13:40:19.856Z,1010.9
2022-12-01T13:41:37.003Z,1010.9
2022-12-01T13:42:54.078Z,1011
2022-12-01T13:44:13.397Z,1010.9
2022-12-01T13:45:27.823Z,1010.9
2022-12-01T13:46:44.985Z,1010.9
2022-12-01T13:48:01.792Z,1011
2022-12-01T13:49:18.785Z,1010.9
2022-12-01T13:50:35.797Z,1010.9
2022-12-01T13:51:52.757Z,1010.9
2022-12-01T13:53:09.952Z,1011
2022-12-01T13:54:26.793Z,1011
2022-12-01T13:55:43.823Z,1011
2022-12-01T13:57:00.786Z,1011
2022-12-01T13:58:17.768Z,1011
2022-12-01T13:59:34.778Z,1010.9
2022-12-01T14:00:51.895Z,1010.9
2022-12-01T14:02:09.005Z,1011
2022-12-01T14:03:25.891Z,1011
2022-12-01T14:04:43.028Z,1011
2022-12-01T14:05:59.830Z,1011
2022-12-01T14:07:16.783Z,1011
2022-12-01T14:08:33.866Z,1011
2022-12-01T14:09:51.041Z,1010.9
2022-12-01T14:11:07.780Z,1010.9
2022-12-01T14:12:24.797Z,1010.9
2022-12-01T14:13:41.872Z,1010.9
2022-12-01T14:14:59.178Z,1010.9
2022-12-01T14:16:15.950Z,1010.9
2022-12-01T14:17:33.355Z,1010.9
2022-12-01T14:18:50.815Z,1011
2022-12-01T14:20:07.936Z,1010.9
2022-12-01T14:21:31.409Z,1010.9
2022-12-01T14:22:45.395Z,1011
2022-12-01T14:24:02.803Z,1010.9
2022-12-01T14:25:19.801Z,1010.9
2022-12-01T14:26:39.666Z,1010.9
2022-12-01T14:27:53.805Z,1010.9
2022-12-01T14:29:10.836Z,1010.9
2022-12-01T14:30:27.939Z,1010.9
2022-12-01T14:31:44.918Z,1010.9
2022-12-01T14:33:01.889Z,1010.9
2022-12-01T14:34:19.504Z,1010.9
2022-12-01T14:35:35.838Z,1010.9
2022-12-01T14:36:52.822Z,1010.9
2022-12-01T14:38:09.881Z,1010.9
2022-12-01T14:39:26.823Z,1010.9
2022-12-01T14:40:43.876Z,1010.9
2022-12-01T14:42:01.795Z,1010.9
2022-12-01T14:43:19.317Z,1010.9
2022-12-01T14:44:36.989Z,1010.9
2022-12-01T14:45:54.263Z,1010.9
2022-12-01T14:47:12.453Z,1010.9
2022-12-01T14:48:30.954Z,1010.9
2022-12-01T14:49:48.341Z,1010.9
2022-12-01T14:51:07.245Z,1010.9
2022-12-01T14:52:24.119Z,1010.9
2022-12-01T14:53:40.934Z,1010.9
2022-12-01T14:54:58.143Z,1010.9
2022-12-01T14:56:14.868Z,1010.9
2022-12-01T14:57:31.891Z,1010.9
2022-12-01T14:58:49.328Z,1010.8
2022-12-01T15:00:06.071Z,1010.8
2022-12-01T15:01:22.934Z,1010.8
2022-12-01T15:02:40.057Z,1010.8
2022-12-01T15:03:56.906Z,1010.8
2022-12-01T15:05:14.141Z,1010.8
2022-12-01T15:06:30.872Z,1010.8
2022-12-01T15:07:48.020Z,1010.8
2022-12-01T15:11:10.786Z,1010.8
2022-12-01T15:12:24.064Z,1010.8
2022-12-01T15:13:41.869Z,1010.9
2022-12-01T15:14:59.014Z,1010.9
2022-12-01T15:16:16.079Z,1010.8
2022-12-01T15:17:33.138Z,1010.8
2022-12-01T15:18:49.887Z,1010.8
2022-12-01T15:20:07.281Z,1010.8
2022-12-01T15:21:23.912Z,1010.8
2022-12-01T15:22:40.900Z,1010.9
2022-12-01T15:23:57.904Z,1010.9
2022-12-01T15:25:15.235Z,1010.9
2022-12-01T15:26:31.895Z,1010.8
2022-12-01T15:27:48.886Z,1010.8
2022-12-01T15:29:05.890Z,1010.8
2022-12-01T15:30:23.092Z,1010.8
2022-12-01T15:31:40.015Z,1010.7
2022-12-01T15:32:57.009Z,1010.7
2022-12-01T15:34:13.889Z,1010.7
2022-12-01T15:35:30.993Z,1010.7
2022-12-01T15:36:47.971Z,1010.7
2022-12-01T15:38:04.937Z,1010.7
2022-12-01T15:39:21.896Z,1010.7
2022-12-01T15:41:20.918Z,1010.6
2022-12-01T15:41:55.924Z,1010.7
2022-12-01T15:43:12.911Z,1010.7
2022-12-01T15:44:29.909Z,1010.7
2022-12-01T15:45:47.089Z,1010.7
2022-12-01T15:47:04.002Z,1010.7
2022-12-01T15:48:20.938Z,1010.7
2022-12-01T15:49:37.931Z,1010.7
2022-12-01T15:50:54.953Z,1010.6
2022-12-01T15:52:11.952Z,1010.7
2022-12-01T15:53:28.927Z,1010.7
2022-12-01T15:54:45.913Z,1010.7
2022-12-01T15:56:03.029Z,1010.7
2022-12-01T15:57:19.931Z,1010.7
2022-12-01T15:58:37.265Z,1010.7
2022-12-01T15:59:53.966Z,1010.7
2022-12-01T16:01:11.109Z,1010.7
2022-12-01T16:02:27.996Z,1010.7
2022-12-01T16:03:45.246Z,1010.7
2022-12-01T16:05:01.926Z,1010.7
2022-12-01T16:06:18.945Z,1010.7
2022-12-01T16:08:04.858Z,1010.7
2022-12-01T16:08:53.118Z,1010.7
2022-12-01T16:10:09.952Z,1010.7
2022-12-01T16:11:27.773Z,1010.7
2022-12-01T16:12:44.957Z,1010.7
2022-12-01T16:14:02.524Z,1010.7
2022-12-01T16:15:20.007Z,1010.7
2022-12-01T16:16:37.008Z,1010.7